sensor_id;sensor_type;location;lat;lon;timestamp;P1;P2;P0
74638;PMS5003;63146;-33.830;18.668;2022-08-30T00:01:08;1;0;
74638;PMS5003;63146;-33.830;18.668;2022-08-30T00:03:35;1;0;
74638;PMS5003;63146;-33.830;18.668;2022-08-30T00:05:59;1;0;
74638;PMS5003;63146;-33.830;18.668;2022-08-30T00:08:25;0;0;
74638;PMS5003;63146;-33.830;18.668;2022-08-30T00:10:50;1;0;
74638;PMS5003;63146;-33.830;18.668;2022-08-30T00:13:16;0;0;
74638;PMS5003;63146;-33.830;18.668;2022-08-30T00:15:41;0;0;
74638;PMS5003;63146;-33.830;18.668;2022-08-30T00:18:07;4;1;
74638;PMS5003;63146;-33.830;18.668;2022-08-30T00:20:33;0;0;
74638;PMS5003;63146;-33.830;18.668;2022-08-30T00:22:58;2;1;
74638;PMS5003;63146;-33.830;18.668;2022-08-30T00:25:23;2;0;
74638;PMS5003;63146;-33.830;18.668;2022-08-30T00:27:49;1;0;
74638;PMS5003;63146;-33.830;18.668;2022-08-30T00:30:15;1;0;
74638;PMS5003;63146;-33.830;18.668;2022-08-30T00:32:40;0;0;
74638;PMS5003;63146;-33.830;18.668;2022-08-30T00:35:06;0;0;
74638;PMS5003;63146;-33.830;18.668;2022-08-30T00:37:31;0;0;
74638;PMS5003;63146;-33.830;18.668;2022-08-30T00:39:57;1;0;
74638;PMS5003;63146;-33.830;18.668;2022-08-30T00:42:22;1;0;
74638;PMS5003;63146;-33.830;18.668;2022-08-30T00:44:48;1;0;
74638;PMS5003;63146;-33.830;18.668;2022-08-30T00:47:13;1;1;
74638;PMS5003;63146;-33.830;18.668;2022-08-30T00:49:40;0;0;
74638;PMS5003;63146;-33.830;18.668;2022-08-30T00:52:05;1;0;
74638;PMS5003;63146;-33.830;18.668;2022-08-30T00:54:30;1;0;
74638;PMS5003;63146;-33.830;18.668;2022-08-30T00:56:56;0;0;
74638;PMS5003;63146;-33.830;18.668;2022-08-30T00:59:22;0;0;
74638;PMS5003;63146;-33.830;18.668;2022-08-30T01:01:47;0;0;
74638;PMS5003;63146;-33.830;18.668;2022-08-30T01:04:12;0;0;
74638;PMS5003;63146;-33.830;18.668;2022-08-30T01:06:38;0;0;
74638;PMS5003;63146;-33.830;18.668;2022-08-30T01:09:03;0;0;
74638;PMS5003;63146;-33.830;18.668;2022-08-30T01:11:29;0;0;
74638;PMS5003;63146;-33.830;18.668;2022-08-30T01:13:54;0;0;
74638;PMS5003;63146;-33.830;18.668;2022-08-30T01:16:20;2;1;
74638;PMS5003;63146;-33.830;18.668;2022-08-30T01:18:46;0;0;
74638;PMS5003;63146;-33.830;18.668;2022-08-30T01:21:14;1;0;
74638;PMS5003;63146;-33.830;18.668;2022-08-30T01:23:38;0;0;
74638;PMS5003;63146;-33.830;18.668;2022-08-30T01:26:03;1;0;
74638;PMS5003;63146;-33.830;18.668;2022-08-30T01:28:28;1;0;
74638;PMS5003;63146;-33.830;18.668;2022-08-30T01:30:53;0;0;
74638;PMS5003;63146;-33.830;18.668;2022-08-30T01:33:19;1;0;
74638;PMS5003;63146;-33.830;18.668;2022-08-30T01:35:46;2;0;
74638;PMS5003;63146;-33.830;18.668;2022-08-30T01:38:10;0;0;
74638;PMS5003;63146;-33.830;18.668;2022-08-30T01:40:35;1;1;
74638;PMS5003;63146;-33.830;18.668;2022-08-30T01:43:01;0;0;
74638;PMS5003;63146;-33.830;18.668;2022-08-30T01:45:27;0;0;
74638;PMS5003;63146;-33.830;18.668;2022-08-30T01:47:52;0;0;
74638;PMS5003;63146;-33.830;18.668;2022-08-30T01:50:18;0;0;
74638;PMS5003;63146;-33.830;18.668;2022-08-30T01:52:43;0;0;
74638;PMS5003;63146;-33.830;18.668;2022-08-30T01:55:09;1;1;
74638;PMS5003;63146;-33.830;18.668;2022-08-30T01:57:34;2;0;
74638;PMS5003;63146;-33.830;18.668;2022-08-30T02:00:00;0;0;
74638;PMS5003;63146;-33.830;18.668;2022-08-30T02:02:26;2;1;
74638;PMS5003;63146;-33.830;18.668;2022-08-30T02:04:51;1;0;
74638;PMS5003;63146;-33.830;18.668;2022-08-30T02:07:17;0;0;
74638;PMS5003;63146;-33.830;18.668;2022-08-30T02:09:42;1;0;
74638;PMS5003;63146;-33.830;18.668;2022-08-30T02:12:08;1;0;
74638;PMS5003;63146;-33.830;18.668;2022-08-30T02:14:34;0;0;
74638;PMS5003;63146;-33.830;18.668;2022-08-30T02:16:59;1;1;
74638;PMS5003;63146;-33.830;18.668;2022-08-30T02:19:25;0;0;
74638;PMS5003;63146;-33.830;18.668;2022-08-30T02:21:50;0;0;
74638;PMS5003;63146;-33.830;18.668;2022-08-30T02:24:15;1;1;
74638;PMS5003;63146;-33.830;18.668;2022-08-30T02:26:41;0;0;
74638;PMS5003;63146;-33.830;18.668;2022-08-30T02:29:07;1;0;
74638;PMS5003;63146;-33.830;18.668;2022-08-30T02:31:33;0;0;
74638;PMS5003;63146;-33.830;18.668;2022-08-30T02:33:58;1;0;
74638;PMS5003;63146;-33.830;18.668;2022-08-30T02:36:23;0;0;
74638;PMS5003;63146;-33.830;18.668;2022-08-30T02:38:49;1;1;
74638;PMS5003;63146;-33.830;18.668;2022-08-30T02:41:14;0;0;
74638;PMS5003;63146;-33.830;18.668;2022-08-30T02:43:40;1;0;
74638;PMS5003;63146;-33.830;18.668;2022-08-30T02:46:06;1;0;
74638;PMS5003;63146;-33.830;18.668;2022-08-30T02:48:31;1;1;
74638;PMS5003;63146;-33.830;18.668;2022-08-30T02:51:02;1;0;
74638;PMS5003;63146;-33.830;18.668;2022-08-30T02:53:22;0;0;
74638;PMS5003;63146;-33.830;18.668;2022-08-30T02:55:48;0;0;
74638;PMS5003;63146;-33.830;18.668;2022-08-30T02:58:14;0;0;
74638;PMS5003;63146;-33.830;18.668;2022-08-30T03:00:39;1;0;
74638;PMS5003;63146;-33.830;18.668;2022-08-30T03:03:04;1;0;
74638;PMS5003;63146;-33.830;18.668;2022-08-30T03:05:30;0;0;
74638;PMS5003;63146;-33.830;18.668;2022-08-30T03:07:56;0;0;
74638;PMS5003;63146;-33.830;18.668;2022-08-30T03:10:21;0;0;
74638;PMS5003;63146;-33.830;18.668;2022-08-30T03:12:47;2;0;
74638;PMS5003;63146;-33.830;18.668;2022-08-30T03:15:13;1;0;
74638;PMS5003;63146;-33.830;18.668;2022-08-30T03:17:38;0;0;
74638;PMS5003;63146;-33.830;18.668;2022-08-30T03:20:04;0;0;
74638;PMS5003;63146;-33.830;18.668;2022-08-30T03:22:29;0;0;
74638;PMS5003;63146;-33.830;18.668;2022-08-30T03:24:54;0;0;
74638;PMS5003;63146;-33.830;18.668;2022-08-30T03:27:20;0;0;
74638;PMS5003;63146;-33.830;18.668;2022-08-30T03:29:46;0;0;
74638;PMS5003;63146;-33.830;18.668;2022-08-30T03:32:11;1;0;
74638;PMS5003;63146;-33.830;18.668;2022-08-30T03:34:37;2;1;
74638;PMS5003;63146;-33.830;18.668;2022-08-30T03:37:02;2;1;
74638;PMS5003;63146;-33.830;18.668;2022-08-30T03:39:28;1;0;
74638;PMS5003;63146;-33.830;18.668;2022-08-30T03:41:53;2;2;
74638;PMS5003;63146;-33.830;18.668;2022-08-30T03:44:19;0;0;
74638;PMS5003;63146;-33.830;18.668;2022-08-30T03:46:45;0;0;
74638;PMS5003;63146;-33.830;18.668;2022-08-30T03:49:10;1;1;
74638;PMS5003;63146;-33.830;18.668;2022-08-30T03:51:36;0;0;
74638;PMS5003;63146;-33.830;18.668;2022-08-30T03:54:01;0;0;
74638;PMS5003;63146;-33.830;18.668;2022-08-30T03:56:27;1;0;
74638;PMS5003;63146;-33.830;18.668;2022-08-30T03:58:52;1;1;
74638;PMS5003;63146;-33.830;18.668;2022-08-30T04:01:18;3;2;
74638;PMS5003;63146;-33.830;18.668;2022-08-30T04:03:44;1;0;
74638;PMS5003;63146;-33.830;18.668;2022-08-30T04:06:10;0;0;
74638;PMS5003;63146;-33.830;18.668;2022-08-30T04:08:35;1;0;
74638;PMS5003;63146;-33.830;18.668;2022-08-30T04:11:01;2;2;
74638;PMS5003;63146;-33.830;18.668;2022-08-30T04:13:26;2;1;
74638;PMS5003;63146;-33.830;18.668;2022-08-30T04:15:52;1;0;
74638;PMS5003;63146;-33.830;18.668;2022-08-30T04:18:17;1;1;
74638;PMS5003;63146;-33.830;18.668;2022-08-30T04:20:43;4;1;
74638;PMS5003;63146;-33.830;18.668;2022-08-30T04:23:09;1;0;
74638;PMS5003;63146;-33.830;18.668;2022-08-30T04:25:34;1;1;
74638;PMS5003;63146;-33.830;18.668;2022-08-30T04:28:00;1;1;
74638;PMS5003;63146;-33.830;18.668;2022-08-30T04:30:26;0;0;
74638;PMS5003;63146;-33.830;18.668;2022-08-30T04:32:51;0;0;
74638;PMS5003;63146;-33.830;18.668;2022-08-30T04:35:17;0;0;
74638;PMS5003;63146;-33.830;18.668;2022-08-30T04:37:42;1;0;
74638;PMS5003;63146;-33.830;18.668;2022-08-30T04:40:08;0;0;
74638;PMS5003;63146;-33.830;18.668;2022-08-30T04:42:33;0;0;
74638;PMS5003;63146;-33.830;18.668;2022-08-30T04:45:00;0;0;
74638;PMS5003;63146;-33.830;18.668;2022-08-30T04:47:24;1;1;
74638;PMS5003;63146;-33.830;18.668;2022-08-30T04:49:50;1;0;
74638;PMS5003;63146;-33.830;18.668;2022-08-30T04:52:15;0;0;
74638;PMS5003;63146;-33.830;18.668;2022-08-30T04:54:40;0;0;
74638;PMS5003;63146;-33.830;18.668;2022-08-30T04:57:06;1;1;
74638;PMS5003;63146;-33.830;18.668;2022-08-30T04:59:31;0;0;
74638;PMS5003;63146;-33.830;18.668;2022-08-30T05:01:57;0;0;
74638;PMS5003;63146;-33.830;18.668;2022-08-30T05:04:23;0;0;
74638;PMS5003;63146;-33.830;18.668;2022-08-30T05:06:48;2;1;
74638;PMS5003;63146;-33.830;18.668;2022-08-30T05:09:14;1;0;
74638;PMS5003;63146;-33.830;18.668;2022-08-30T05:11:39;0;0;
74638;PMS5003;63146;-33.830;18.668;2022-08-30T05:14:05;0;0;
74638;PMS5003;63146;-33.830;18.668;2022-08-30T05:16:30;0;0;
74638;PMS5003;63146;-33.830;18.668;2022-08-30T05:18:56;0;0;
74638;PMS5003;63146;-33.830;18.668;2022-08-30T05:21:23;0;0;
74638;PMS5003;63146;-33.830;18.668;2022-08-30T05:23:47;1;1;
74638;PMS5003;63146;-33.830;18.668;2022-08-30T05:26:14;3;1;
74638;PMS5003;63146;-33.830;18.668;2022-08-30T05:28:39;1;1;
74638;PMS5003;63146;-33.830;18.668;2022-08-30T05:33:30;0;0;
74638;PMS5003;63146;-33.830;18.668;2022-08-30T05:35:55;1;1;
74638;PMS5003;63146;-33.830;18.668;2022-08-30T05:38:21;2;2;
74638;PMS5003;63146;-33.830;18.668;2022-08-30T05:40:46;1;1;
74638;PMS5003;63146;-33.830;18.668;2022-08-30T05:43:12;3;2;
74638;PMS5003;63146;-33.830;18.668;2022-08-30T05:45:37;0;0;
74638;PMS5003;63146;-33.830;18.668;2022-08-30T05:48:03;1;1;
74638;PMS5003;63146;-33.830;18.668;2022-08-30T05:50:29;1;1;
74638;PMS5003;63146;-33.830;18.668;2022-08-30T05:52:54;0;0;
74638;PMS5003;63146;-33.830;18.668;2022-08-30T05:55:20;1;1;
74638;PMS5003;63146;-33.830;18.668;2022-08-30T05:57:45;2;1;
74638;PMS5003;63146;-33.830;18.668;2022-08-30T06:00:12;3;3;
74638;PMS5003;63146;-33.830;18.668;2022-08-30T06:02:36;2;1;
74638;PMS5003;63146;-33.830;18.668;2022-08-30T06:05:02;2;2;
74638;PMS5003;63146;-33.830;18.668;2022-08-30T06:07:27;2;2;
74638;PMS5003;63146;-33.830;18.668;2022-08-30T06:09:53;2;2;
74638;PMS5003;63146;-33.830;18.668;2022-08-30T06:12:19;0;0;
74638;PMS5003;63146;-33.830;18.668;2022-08-30T06:14:44;0;0;
74638;PMS5003;63146;-33.830;18.668;2022-08-30T06:17:10;0;0;
74638;PMS5003;63146;-33.830;18.668;2022-08-30T06:19:36;2;1;
74638;PMS5003;63146;-33.830;18.668;2022-08-30T06:22:01;0;0;
74638;PMS5003;63146;-33.830;18.668;2022-08-30T06:24:26;2;1;
74638;PMS5003;63146;-33.830;18.668;2022-08-30T06:26:52;2;2;
74638;PMS5003;63146;-33.830;18.668;2022-08-30T06:29:18;0;0;
74638;PMS5003;63146;-33.830;18.668;2022-08-30T06:31:43;2;2;
74638;PMS5003;63146;-33.830;18.668;2022-08-30T06:34:09;1;1;
74638;PMS5003;63146;-33.830;18.668;2022-08-30T06:36:34;1;1;
74638;PMS5003;63146;-33.830;18.668;2022-08-30T06:38:59;2;1;
74638;PMS5003;63146;-33.830;18.668;2022-08-30T06:41:26;0;0;
74638;PMS5003;63146;-33.830;18.668;2022-08-30T06:43:50;0;0;
74638;PMS5003;63146;-33.830;18.668;2022-08-30T06:46:17;0;0;
74638;PMS5003;63146;-33.830;18.668;2022-08-30T06:48:42;0;0;
74638;PMS5003;63146;-33.830;18.668;2022-08-30T06:51:07;1;1;
74638;PMS5003;63146;-33.830;18.668;2022-08-30T06:53:33;0;0;
74638;PMS5003;63146;-33.830;18.668;2022-08-30T06:56:00;0;0;
74638;PMS5003;63146;-33.830;18.668;2022-08-30T06:58:24;1;0;
74638;PMS5003;63146;-33.830;18.668;2022-08-30T07:00:49;1;1;
74638;PMS5003;63146;-33.830;18.668;2022-08-30T07:03:15;0;0;
74638;PMS5003;63146;-33.830;18.668;2022-08-30T07:05:40;0;0;
74638;PMS5003;63146;-33.830;18.668;2022-08-30T07:08:05;0;0;
74638;PMS5003;63146;-33.830;18.668;2022-08-30T07:10:31;0;0;
74638;PMS5003;63146;-33.830;18.668;2022-08-30T07:12:57;0;0;
74638;PMS5003;63146;-33.830;18.668;2022-08-30T07:15:22;0;0;
74638;PMS5003;63146;-33.830;18.668;2022-08-30T07:17:48;0;0;
74638;PMS5003;63146;-33.830;18.668;2022-08-30T07:20:13;0;0;
74638;PMS5003;63146;-33.830;18.668;2022-08-30T07:22:38;2;1;
74638;PMS5003;63146;-33.830;18.668;2022-08-30T07:25:04;0;0;
74638;PMS5003;63146;-33.830;18.668;2022-08-30T07:27:30;0;0;
74638;PMS5003;63146;-33.830;18.668;2022-08-30T07:29:55;0;0;
74638;PMS5003;63146;-33.830;18.668;2022-08-30T07:32:21;0;0;
74638;PMS5003;63146;-33.830;18.668;2022-08-30T07:34:46;0;0;
74638;PMS5003;63146;-33.830;18.668;2022-08-30T07:37:12;0;0;
74638;PMS5003;63146;-33.830;18.668;2022-08-30T07:39:37;1;0;
74638;PMS5003;63146;-33.830;18.668;2022-08-30T07:42:03;0;0;
74638;PMS5003;63146;-33.830;18.668;2022-08-30T07:44:28;1;1;
74638;PMS5003;63146;-33.830;18.668;2022-08-30T07:46:53;1;1;
74638;PMS5003;63146;-33.830;18.668;2022-08-30T07:49:19;2;1;
74638;PMS5003;63146;-33.830;18.668;2022-08-30T07:51:45;2;1;
74638;PMS5003;63146;-33.830;18.668;2022-08-30T07:54:10;0;0;
74638;PMS5003;63146;-33.830;18.668;2022-08-30T07:56:35;1;1;
74638;PMS5003;63146;-33.830;18.668;2022-08-30T07:59:01;0;0;
74638;PMS5003;63146;-33.830;18.668;2022-08-30T08:01:26;2;1;
74638;PMS5003;63146;-33.830;18.668;2022-08-30T08:03:52;0;0;
74638;PMS5003;63146;-33.830;18.668;2022-08-30T08:06:18;1;0;
74638;PMS5003;63146;-33.830;18.668;2022-08-30T08:08:43;0;0;
74638;PMS5003;63146;-33.830;18.668;2022-08-30T08:11:08;0;0;
74638;PMS5003;63146;-33.830;18.668;2022-08-30T08:13:34;1;0;
74638;PMS5003;63146;-33.830;18.668;2022-08-30T08:15:59;0;0;
74638;PMS5003;63146;-33.830;18.668;2022-08-30T08:18:24;2;1;
74638;PMS5003;63146;-33.830;18.668;2022-08-30T08:20:50;1;0;
74638;PMS5003;63146;-33.830;18.668;2022-08-30T08:23:16;1;0;
74638;PMS5003;63146;-33.830;18.668;2022-08-30T08:25:41;1;0;
74638;PMS5003;63146;-33.830;18.668;2022-08-30T08:28:07;1;0;
74638;PMS5003;63146;-33.830;18.668;2022-08-30T08:30:37;0;0;
74638;PMS5003;63146;-33.830;18.668;2022-08-30T08:32:57;1;1;
74638;PMS5003;63146;-33.830;18.668;2022-08-30T08:35:23;0;0;
74638;PMS5003;63146;-33.830;18.668;2022-08-30T08:37:48;0;0;
74638;PMS5003;63146;-33.830;18.668;2022-08-30T08:40:16;0;0;
74638;PMS5003;63146;-33.830;18.668;2022-08-30T08:42:45;0;0;
74638;PMS5003;63146;-33.830;18.668;2022-08-30T08:45:06;0;0;
74638;PMS5003;63146;-33.830;18.668;2022-08-30T08:47:34;0;0;
74638;PMS5003;63146;-33.830;18.668;2022-08-30T08:49:56;0;0;
74638;PMS5003;63146;-33.830;18.668;2022-08-30T08:52:22;1;1;
74638;PMS5003;63146;-33.830;18.668;2022-08-30T08:54:47;0;0;
74638;PMS5003;63146;-33.830;18.668;2022-08-30T08:57:12;1;0;
74638;PMS5003;63146;-33.830;18.668;2022-08-30T08:59:37;0;0;
74638;PMS5003;63146;-33.830;18.668;2022-08-30T09:02:06;0;0;
74638;PMS5003;63146;-33.830;18.668;2022-08-30T09:04:30;1;1;
74638;PMS5003;63146;-33.830;18.668;2022-08-30T09:06:55;0;0;
74638;PMS5003;63146;-33.830;18.668;2022-08-30T09:09:20;1;1;
74638;PMS5003;63146;-33.830;18.668;2022-08-30T09:11:45;0;0;
74638;PMS5003;63146;-33.830;18.668;2022-08-30T09:14:12;0;0;
74638;PMS5003;63146;-33.830;18.668;2022-08-30T09:19:00;2;0;
74638;PMS5003;63146;-33.830;18.668;2022-08-30T09:21:25;0;0;
74638;PMS5003;63146;-33.830;18.668;2022-08-30T09:23:55;0;0;
74638;PMS5003;63146;-33.830;18.668;2022-08-30T09:28:43;0;0;
74638;PMS5003;63146;-33.830;18.668;2022-08-30T09:31:16;0;0;
74638;PMS5003;63146;-33.830;18.668;2022-08-30T09:33:33;0;0;
74638;PMS5003;63146;-33.830;18.668;2022-08-30T09:38:25;0;0;
74638;PMS5003;63146;-33.830;18.668;2022-08-30T09:40:49;0;0;
74638;PMS5003;63146;-33.830;18.668;2022-08-30T09:43:19;0;0;
74638;PMS5003;63146;-33.830;18.668;2022-08-30T09:45:40;0;0;
74638;PMS5003;63146;-33.830;18.668;2022-08-30T09:50:31;1;1;
74638;PMS5003;63146;-33.830;18.668;2022-08-30T09:52:58;0;0;
74638;PMS5003;63146;-33.830;18.668;2022-08-30T09:55:28;0;0;
74638;PMS5003;63146;-33.830;18.668;2022-08-30T09:57:49;0;0;
74638;PMS5003;63146;-33.830;18.668;2022-08-30T10:00:14;0;0;
74638;PMS5003;63146;-33.830;18.668;2022-08-30T10:02:42;1;0;
74638;PMS5003;63146;-33.830;18.668;2022-08-30T10:05:06;0;0;
74638;PMS5003;63146;-33.830;18.668;2022-08-30T10:07:30;0;0;
74638;PMS5003;63146;-33.830;18.668;2022-08-30T10:09:55;0;0;
74638;PMS5003;63146;-33.830;18.668;2022-08-30T10:12:21;1;0;
74638;PMS5003;63146;-33.830;18.668;2022-08-30T10:14:48;0;0;
74638;PMS5003;63146;-33.830;18.668;2022-08-30T10:17:11;0;0;
74638;PMS5003;63146;-33.830;18.668;2022-08-30T10:19:39;0;0;
74638;PMS5003;63146;-33.830;18.668;2022-08-30T10:22:02;0;0;
74638;PMS5003;63146;-33.830;18.668;2022-08-30T10:24:27;1;0;
74638;PMS5003;63146;-33.830;18.668;2022-08-30T10:26:52;1;1;
74638;PMS5003;63146;-33.830;18.668;2022-08-30T10:29:18;0;0;
74638;PMS5003;63146;-33.830;18.668;2022-08-30T10:31:46;0;0;
74638;PMS5003;63146;-33.830;18.668;2022-08-30T10:34:09;0;0;
74638;PMS5003;63146;-33.830;18.668;2022-08-30T10:36:35;0;0;
74638;PMS5003;63146;-33.830;18.668;2022-08-30T10:38:58;1;0;
74638;PMS5003;63146;-33.830;18.668;2022-08-30T10:41:27;0;0;
74638;PMS5003;63146;-33.830;18.668;2022-08-30T10:43:51;1;0;
74638;PMS5003;63146;-33.830;18.668;2022-08-30T10:46:17;0;0;
74638;PMS5003;63146;-33.830;18.668;2022-08-30T10:48:40;0;0;
74638;PMS5003;63146;-33.830;18.668;2022-08-30T10:51:07;0;0;
74638;PMS5003;63146;-33.830;18.668;2022-08-30T10:53:31;0;0;
74638;PMS5003;63146;-33.830;18.668;2022-08-30T10:55:59;0;0;
74638;PMS5003;63146;-33.830;18.668;2022-08-30T10:58:22;1;0;
74638;PMS5003;63146;-33.830;18.668;2022-08-30T11:00:53;0;0;
74638;PMS5003;63146;-33.830;18.668;2022-08-30T11:03:17;1;1;
74638;PMS5003;63146;-33.830;18.668;2022-08-30T11:05:45;1;0;
74638;PMS5003;63146;-33.830;18.668;2022-08-30T11:08:05;0;0;
74638;PMS5003;63146;-33.830;18.668;2022-08-30T11:10:32;0;0;
74638;PMS5003;63146;-33.830;18.668;2022-08-30T11:12:56;1;0;
74638;PMS5003;63146;-33.830;18.668;2022-08-30T11:15:20;0;0;
74638;PMS5003;63146;-33.830;18.668;2022-08-30T11:17:46;0;0;
74638;PMS5003;63146;-33.830;18.668;2022-08-30T11:22:35;0;0;
74638;PMS5003;63146;-33.830;18.668;2022-08-30T11:25:04;1;0;
74638;PMS5003;63146;-33.830;18.668;2022-08-30T11:29:56;1;1;
74638;PMS5003;63146;-33.830;18.668;2022-08-30T11:32:20;0;0;
74638;PMS5003;63146;-33.830;18.668;2022-08-30T11:37:08;0;0;
74638;PMS5003;63146;-33.830;18.668;2022-08-30T11:44:25;1;1;
74638;PMS5003;63146;-33.830;18.668;2022-08-30T11:46:50;2;0;
74638;PMS5003;63146;-33.830;18.668;2022-08-30T11:51:46;0;0;
74638;PMS5003;63146;-33.830;18.668;2022-08-30T11:54:08;1;1;
74638;PMS5003;63146;-33.830;18.668;2022-08-30T11:56:32;0;0;
74638;PMS5003;63146;-33.830;18.668;2022-08-30T11:58:56;1;0;
74638;PMS5003;63146;-33.830;18.668;2022-08-30T12:06:12;1;1;
74638;PMS5003;63146;-33.830;18.668;2022-08-30T12:08:48;0;0;
74638;PMS5003;63146;-33.830;18.668;2022-08-30T12:11:04;0;0;
74638;PMS5003;63146;-33.830;18.668;2022-08-30T12:15:54;1;1;
74638;PMS5003;63146;-33.830;18.668;2022-08-30T12:18:21;0;0;
74638;PMS5003;63146;-33.830;18.668;2022-08-30T12:20:45;1;0;
74638;PMS5003;63146;-33.830;18.668;2022-08-30T12:23:14;1;1;
74638;PMS5003;63146;-33.830;18.668;2022-08-30T12:25:35;4;3;
74638;PMS5003;63146;-33.830;18.668;2022-08-30T12:28:10;1;1;
74638;PMS5003;63146;-33.830;18.668;2022-08-30T12:30:26;1;1;
74638;PMS5003;63146;-33.830;18.668;2022-08-30T12:32:51;1;0;
74638;PMS5003;63146;-33.830;18.668;2022-08-30T12:35:18;4;3;
74638;PMS5003;63146;-33.830;18.668;2022-08-30T12:37:41;0;0;
74638;PMS5003;63146;-33.830;18.668;2022-08-30T12:40:08;1;1;
74638;PMS5003;63146;-33.830;18.668;2022-08-30T12:42:33;2;0;
74638;PMS5003;63146;-33.830;18.668;2022-08-30T12:44:58;0;0;
74638;PMS5003;63146;-33.830;18.668;2022-08-30T12:47:23;0;0;
74638;PMS5003;63146;-33.830;18.668;2022-08-30T12:49:49;0;0;
74638;PMS5003;63146;-33.830;18.668;2022-08-30T12:52:14;0;0;
74638;PMS5003;63146;-33.830;18.668;2022-08-30T12:54:39;1;1;
74638;PMS5003;63146;-33.830;18.668;2022-08-30T12:57:05;1;1;
74638;PMS5003;63146;-33.830;18.668;2022-08-30T12:59:40;0;0;
74638;PMS5003;63146;-33.830;18.668;2022-08-30T13:01:55;0;0;
74638;PMS5003;63146;-33.830;18.668;2022-08-30T13:04:22;0;0;
74638;PMS5003;63146;-33.830;18.668;2022-08-30T13:06:48;1;1;
74638;PMS5003;63146;-33.830;18.668;2022-08-30T13:11:37;0;0;
74638;PMS5003;63146;-33.830;18.668;2022-08-30T13:16:34;2;1;
74638;PMS5003;63146;-33.830;18.668;2022-08-30T13:18:53;1;1;
74638;PMS5003;63146;-33.830;18.668;2022-08-30T13:21:20;0;0;
74638;PMS5003;63146;-33.830;18.668;2022-08-30T13:23:43;1;1;
74638;PMS5003;63146;-33.830;18.668;2022-08-30T13:26:09;1;1;
74638;PMS5003;63146;-33.830;18.668;2022-08-30T13:28:41;1;1;
74638;PMS5003;63146;-33.830;18.668;2022-08-30T13:31:00;1;1;
74638;PMS5003;63146;-33.830;18.668;2022-08-30T13:33:25;1;1;
74638;PMS5003;63146;-33.830;18.668;2022-08-30T13:35:52;3;3;
74638;PMS5003;63146;-33.830;18.668;2022-08-30T13:38:16;1;1;
74638;PMS5003;63146;-33.830;18.668;2022-08-30T13:40:41;4;3;
74638;PMS5003;63146;-33.830;18.668;2022-08-30T13:43:07;3;3;
74638;PMS5003;63146;-33.830;18.668;2022-08-30T13:45:32;3;3;
74638;PMS5003;63146;-33.830;18.668;2022-08-30T13:47:58;3;2;
74638;PMS5003;63146;-33.830;18.668;2022-08-30T13:50:23;2;2;
74638;PMS5003;63146;-33.830;18.668;2022-08-30T13:52:48;2;1;
74638;PMS5003;63146;-33.830;18.668;2022-08-30T13:55:13;2;1;
74638;PMS5003;63146;-33.830;18.668;2022-08-30T13:57:39;5;3;
74638;PMS5003;63146;-33.830;18.668;2022-08-30T14:00:05;12;12;
74638;PMS5003;63146;-33.830;18.668;2022-08-30T14:02:30;16;16;
74638;PMS5003;63146;-33.830;18.668;2022-08-30T14:04:54;12;10;
74638;PMS5003;63146;-33.830;18.668;2022-08-30T14:07:19;4;3;
74638;PMS5003;63146;-33.830;18.668;2022-08-30T14:09:45;1;1;
74638;PMS5003;63146;-33.830;18.668;2022-08-30T14:12:10;1;1;
74638;PMS5003;63146;-33.830;18.668;2022-08-30T14:14:36;2;1;
74638;PMS5003;63146;-33.830;18.668;2022-08-30T14:17:01;3;2;
74638;PMS5003;63146;-33.830;18.668;2022-08-30T14:19:26;3;2;
74638;PMS5003;63146;-33.830;18.668;2022-08-30T14:21:52;3;3;
74638;PMS5003;63146;-33.830;18.668;2022-08-30T14:24:17;2;2;
74638;PMS5003;63146;-33.830;18.668;2022-08-30T14:26:44;1;1;
74638;PMS5003;63146;-33.830;18.668;2022-08-30T14:29:09;2;2;
74638;PMS5003;63146;-33.830;18.668;2022-08-30T14:31:33;4;2;
74638;PMS5003;63146;-33.830;18.668;2022-08-30T14:33:58;3;3;
74638;PMS5003;63146;-33.830;18.668;2022-08-30T14:36:24;4;3;
74638;PMS5003;63146;-33.830;18.668;2022-08-30T14:38:50;1;0;
74638;PMS5003;63146;-33.830;18.668;2022-08-30T14:41:15;4;3;
74638;PMS5003;63146;-33.830;18.668;2022-08-30T14:43:40;3;2;
74638;PMS5003;63146;-33.830;18.668;2022-08-30T14:46:06;4;2;
74638;PMS5003;63146;-33.830;18.668;2022-08-30T14:48:31;2;2;
74638;PMS5003;63146;-33.830;18.668;2022-08-30T14:50:57;5;5;
74638;PMS5003;63146;-33.830;18.668;2022-08-30T14:53:22;1;1;
74638;PMS5003;63146;-33.830;18.668;2022-08-30T14:55:47;2;2;
74638;PMS5003;63146;-33.830;18.668;2022-08-30T14:58:13;4;3;
74638;PMS5003;63146;-33.830;18.668;2022-08-30T15:00:38;3;2;
74638;PMS5003;63146;-33.830;18.668;2022-08-30T15:03:03;3;3;
74638;PMS5003;63146;-33.830;18.668;2022-08-30T15:05:29;3;3;
74638;PMS5003;63146;-33.830;18.668;2022-08-30T15:07:54;2;2;
74638;PMS5003;63146;-33.830;18.668;2022-08-30T15:10:20;4;2;
74638;PMS5003;63146;-33.830;18.668;2022-08-30T15:12:46;4;3;
74638;PMS5003;63146;-33.830;18.668;2022-08-30T15:15:10;2;1;
74638;PMS5003;63146;-33.830;18.668;2022-08-30T15:17:36;3;3;
74638;PMS5003;63146;-33.830;18.668;2022-08-30T15:20:01;6;6;
74638;PMS5003;63146;-33.830;18.668;2022-08-30T15:22:27;4;4;
74638;PMS5003;63146;-33.830;18.668;2022-08-30T15:24:52;11;10;
74638;PMS5003;63146;-33.830;18.668;2022-08-30T15:27:17;7;7;
74638;PMS5003;63146;-33.830;18.668;2022-08-30T15:29:42;3;3;
74638;PMS5003;63146;-33.830;18.668;2022-08-30T15:32:08;1;1;
74638;PMS5003;63146;-33.830;18.668;2022-08-30T15:34:34;5;2;
74638;PMS5003;63146;-33.830;18.668;2022-08-30T15:36:59;2;1;
74638;PMS5003;63146;-33.830;18.668;2022-08-30T15:39:24;2;1;
74638;PMS5003;63146;-33.830;18.668;2022-08-30T15:41:50;2;1;
74638;PMS5003;63146;-33.830;18.668;2022-08-30T15:44:15;3;3;
74638;PMS5003;63146;-33.830;18.668;2022-08-30T15:46:41;3;2;
74638;PMS5003;63146;-33.830;18.668;2022-08-30T15:49:06;1;0;
74638;PMS5003;63146;-33.830;18.668;2022-08-30T15:51:31;2;1;
74638;PMS5003;63146;-33.830;18.668;2022-08-30T15:53:56;2;1;
74638;PMS5003;63146;-33.830;18.668;2022-08-30T15:56:23;3;3;
74638;PMS5003;63146;-33.830;18.668;2022-08-30T15:58:47;1;1;
74638;PMS5003;63146;-33.830;18.668;2022-08-30T16:01:13;2;2;
74638;PMS5003;63146;-33.830;18.668;2022-08-30T16:03:39;2;2;
74638;PMS5003;63146;-33.830;18.668;2022-08-30T16:06:03;1;1;
74638;PMS5003;63146;-33.830;18.668;2022-08-30T16:08:29;2;2;
74638;PMS5003;63146;-33.830;18.668;2022-08-30T16:10:54;2;2;
74638;PMS5003;63146;-33.830;18.668;2022-08-30T16:13:20;5;4;
74638;PMS5003;63146;-33.830;18.668;2022-08-30T16:15:45;5;5;
74638;PMS5003;63146;-33.830;18.668;2022-08-30T16:18:11;11;11;
74638;PMS5003;63146;-33.830;18.668;2022-08-30T16:20:36;8;6;
74638;PMS5003;63146;-33.830;18.668;2022-08-30T16:23:01;20;19;
74638;PMS5003;63146;-33.830;18.668;2022-08-30T16:25:27;25;25;
74638;PMS5003;63146;-33.830;18.668;2022-08-30T16:27:52;14;12;
74638;PMS5003;63146;-33.830;18.668;2022-08-30T16:30:18;9;8;
74638;PMS5003;63146;-33.830;18.668;2022-08-30T16:32:44;18;17;
74638;PMS5003;63146;-33.830;18.668;2022-08-30T16:35:09;57;53;
74638;PMS5003;63146;-33.830;18.668;2022-08-30T16:37:34;29;28;
74638;PMS5003;63146;-33.830;18.668;2022-08-30T16:39:59;14;13;
74638;PMS5003;63146;-33.830;18.668;2022-08-30T16:42:25;10;10;